createdAt,value
2022-07-30T00:00:40.489Z,11.75
2022-07-30T00:03:09.827Z,12.77
2022-07-30T00:05:39.123Z,13.40
2022-07-30T00:08:08.026Z,17.27
2022-07-30T00:10:37.352Z,17.75
2022-07-30T00:13:06.783Z,14.30
2022-07-30T00:15:36.028Z,12.50
2022-07-30T00:18:05.172Z,11.23
2022-07-30T00:20:34.471Z,11.77
2022-07-30T00:23:06.065Z,11.68
2022-07-30T00:25:35.149Z,12.38
2022-07-30T00:28:04.278Z,11.95
2022-07-30T00:30:33.414Z,12.23
2022-07-30T00:33:02.623Z,10.70
2022-07-30T00:35:31.557Z,10.63
2022-07-30T00:38:00.762Z,10.48
2022-07-30T00:40:30.393Z,10.52
2022-07-30T00:42:59.563Z,11.18
2022-07-30T00:45:28.772Z,21.48
2022-07-30T00:47:59.881Z,23.17
2022-07-30T00:50:29.049Z,19.77
2022-07-30T00:52:57.881Z,15.73
2022-07-30T00:55:27.152Z,14.57
2022-07-30T00:57:56.388Z,14.18
2022-07-30T01:00:26.358Z,12.80
2022-07-30T01:02:55.924Z,13.27
2022-07-30T01:05:25.345Z,11.60
2022-07-30T01:07:54.434Z,11.57
2022-07-30T01:10:23.668Z,12.38
2022-07-30T01:12:55.589Z,11.80
2022-07-30T01:15:24.895Z,15.10
2022-07-30T01:18:01.371Z,14.98
2022-07-30T01:20:44.502Z,13.95
2022-07-30T01:23:29.262Z,14.65
2022-07-30T01:26:11.374Z,12.65
2022-07-30T01:28:48.085Z,11.38
2022-07-30T01:31:18.755Z,11.02
2022-07-30T01:33:51.240Z,11.88
2022-07-30T01:36:24.702Z,11.32
2022-07-30T01:38:55.836Z,11.88
2022-07-30T01:41:26.314Z,11.07
2022-07-30T01:43:56.049Z,10.93
2022-07-30T01:46:26.827Z,11.20
2022-07-30T01:48:59.561Z,11.82
2022-07-30T01:51:37.417Z,11.85
2022-07-30T01:54:11.092Z,11.68
2022-07-30T01:56:42.355Z,12.38
2022-07-30T01:59:13.055Z,13.13
2022-07-30T02:01:42.945Z,13.63
2022-07-30T02:04:12.304Z,12.82
2022-07-30T02:06:47.720Z,13.70
2022-07-30T02:09:24.498Z,12.90
2022-07-30T02:12:14.831Z,13.73
2022-07-30T02:15:01.878Z,13.00
2022-07-30T02:17:39.797Z,12.73
2022-07-30T02:20:15.022Z,13.02
2022-07-30T02:22:48.429Z,13.20
2022-07-30T02:25:21.828Z,12.20
2022-07-30T02:27:59.473Z,14.25
2022-07-30T02:30:32.748Z,12.85
2022-07-30T02:33:11.788Z,12.35
2022-07-30T02:35:42.681Z,12.38
2022-07-30T02:38:14.884Z,12.10
2022-07-30T02:40:45.794Z,12.32
2022-07-30T02:43:17.605Z,10.52
2022-07-30T02:45:49.507Z,11.57
2022-07-30T02:48:34.641Z,11.82
2022-07-30T02:51:07.094Z,12.80
2022-07-30T02:53:38.741Z,12.57
2022-07-30T02:56:09.519Z,12.55
2022-07-30T02:58:40.610Z,11.50
2022-07-30T03:01:11.528Z,11.80
2022-07-30T03:03:44.092Z,11.48
2022-07-30T03:08:46.301Z,12.00
2022-07-30T03:13:49.298Z,11.48
2022-07-30T03:16:21.264Z,11.65
2022-07-30T03:18:51.217Z,11.52
2022-07-30T03:21:24.136Z,14.00
2022-07-30T03:23:58.035Z,14.05
2022-07-30T03:26:28.727Z,14.57
2022-07-30T03:28:58.638Z,13.45
2022-07-30T03:31:28.411Z,14.32
2022-07-30T03:34:06.439Z,14.48
2022-07-30T03:36:36.941Z,14.65
2022-07-30T03:39:08.463Z,14.35
2022-07-30T03:41:41.669Z,12.07
2022-07-30T03:44:16.409Z,12.75
2022-07-30T03:46:46.916Z,13.80
2022-07-30T03:49:16.508Z,13.57
2022-07-30T03:51:50.853Z,11.88
2022-07-30T03:54:20.774Z,10.05
2022-07-30T03:57:22.516Z,9.88
2022-07-30T03:59:52.729Z,9.50
2022-07-30T04:02:23.683Z,9.13
2022-07-30T04:04:56.545Z,8.45
2022-07-30T04:07:26.269Z,9.20
2022-07-30T04:09:55.519Z,8.70
2022-07-30T04:12:53.787Z,8.80
2022-07-30T04:16:05.458Z,8.45
2022-07-30T04:18:17.152Z,9.95
2022-07-30T04:20:49.897Z,8.23
2022-07-30T04:23:21.251Z,10.18
2022-07-30T04:25:52.687Z,6.45
2022-07-30T04:28:22.972Z,7.20
2022-07-30T04:30:52.118Z,7.88
2022-07-30T04:33:21.177Z,7.28
2022-07-30T04:36:19.859Z,7.13
2022-07-30T04:38:49.041Z,6.78
2022-07-30T04:41:18.009Z,7.05
2022-07-30T04:44:13.091Z,6.85
2022-07-30T04:46:51.434Z,7.28
2022-07-30T04:49:23.590Z,6.72
2022-07-30T04:51:53.377Z,39.33
2022-07-30T04:54:23.994Z,8.32
2022-07-30T04:56:56.824Z,7.43
2022-07-30T04:59:26.878Z,6.45
2022-07-30T05:01:58.882Z,6.85
2022-07-30T05:07:00.555Z,6.00
2022-07-30T05:09:33.279Z,8.23
2022-07-30T05:12:03.575Z,7.82
2022-07-30T05:14:33.267Z,7.13
2022-07-30T05:17:03.513Z,7.10
2022-07-30T05:19:34.010Z,7.97
2022-07-30T05:22:06.556Z,9.55
2022-07-30T05:24:36.790Z,9.27
2022-07-30T05:27:06.310Z,6.82
2022-07-30T05:29:35.387Z,7.47
2022-07-30T05:32:13.376Z,7.20
2022-07-30T05:34:44.938Z,7.50
2022-07-30T05:37:19.761Z,8.70
2022-07-30T05:39:58.772Z,9.00
2022-07-30T05:42:38.572Z,8.25
2022-07-30T05:45:10.830Z,8.55
2022-07-30T05:47:41.441Z,7.80
2022-07-30T05:50:11.149Z,7.88
2022-07-30T05:52:40.104Z,11.85
2022-07-30T05:55:29.573Z,10.13
2022-07-30T05:58:12.905Z,9.65
2022-07-30T06:00:42.620Z,9.35
2022-07-30T06:03:12.975Z,8.82
2022-07-30T06:06:05.081Z,8.48
2022-07-30T06:08:35.172Z,8.13
2022-07-30T06:11:04.488Z,7.95
2022-07-30T06:13:36.753Z,8.60
2022-07-30T06:16:06.809Z,9.88
2022-07-30T06:18:40.043Z,8.43
2022-07-30T06:21:17.186Z,9.52
2022-07-30T06:24:06.915Z,7.85
2022-07-30T06:26:42.631Z,9.27
2022-07-30T06:29:13.391Z,8.95
2022-07-30T06:31:43.438Z,8.45
2022-07-30T06:34:14.657Z,10.52
2022-07-30T06:36:45.154Z,10.40
2022-07-30T06:39:55.955Z,10.55
2022-07-30T06:42:31.161Z,9.82
2022-07-30T06:45:22.739Z,10.43
2022-07-30T06:48:11.903Z,11.20
2022-07-30T06:50:44.063Z,11.63
2022-07-30T06:53:13.797Z,11.07
2022-07-30T06:56:02.471Z,11.40
2022-07-30T06:58:41.287Z,10.57
2022-07-30T07:01:28.933Z,10.82
2022-07-30T07:03:59.541Z,10.63
2022-07-30T07:06:28.805Z,11.55
2022-07-30T07:08:57.959Z,10.48
2022-07-30T07:11:36.194Z,11.45
2022-07-30T07:14:10.339Z,11.57
2022-07-30T07:16:39.891Z,12.00
2022-07-30T07:20:00.217Z,12.88
2022-07-30T07:22:26.041Z,12.90
2022-07-30T07:24:55.671Z,11.25
2022-07-30T07:27:28.625Z,11.65
2022-07-30T07:30:05.758Z,11.77
2022-07-30T07:32:38.995Z,12.43
2022-07-30T07:35:10.298Z,13.60
2022-07-30T07:37:43.101Z,12.98
2022-07-30T07:40:20.464Z,13.73
2022-07-30T07:42:49.452Z,13.10
2022-07-30T07:45:21.563Z,13.90
2022-07-30T07:47:59.683Z,12.88
2022-07-30T07:50:59.765Z,13.15
2022-07-30T07:53:33.148Z,14.13
2022-07-30T07:56:02.213Z,14.93
2022-07-30T07:58:31.958Z,16.50
2022-07-30T08:01:03.341Z,14.80
2022-07-30T08:03:52.867Z,16.70
2022-07-30T08:06:54.119Z,16.23
2022-07-30T08:09:44.578Z,19.33
2022-07-30T08:12:21.174Z,20.10
2022-07-30T08:15:10.698Z,19.83
2022-07-30T08:18:20.497Z,22.88
2022-07-30T08:21:03.040Z,23.83
2022-07-30T08:23:34.213Z,25.00
2022-07-30T08:26:03.561Z,26.67
2022-07-30T08:28:35.953Z,24.95
2022-07-30T08:31:08.820Z,24.92
2022-07-30T08:33:38.691Z,26.60
2022-07-30T08:36:10.200Z,31.00
2022-07-30T08:38:40.595Z,28.80
2022-07-30T08:41:10.759Z,29.02
2022-07-30T08:43:41.493Z,22.00
2022-07-30T08:46:14.037Z,24.60
2022-07-30T08:48:58.413Z,29.63
2022-07-30T08:51:28.433Z,30.92
2022-07-30T08:54:36.712Z,37.00
2022-07-30T08:57:06.779Z,38.45
2022-07-30T09:02:33.041Z,37.22
2022-07-30T09:05:07.138Z,34.35
2022-07-30T09:07:37.399Z,35.72
2022-07-30T09:10:11.306Z,32.80
2022-07-30T09:12:46.515Z,31.52
2022-07-30T09:15:18.348Z,32.00
2022-07-30T09:17:53.851Z,36.05
2022-07-30T09:20:29.206Z,37.22
2022-07-30T09:23:02.311Z,37.70
2022-07-30T09:25:45.996Z,33.80
2022-07-30T09:28:36.524Z,30.55
2022-07-30T09:32:05.242Z,29.50
2022-07-30T09:34:53.228Z,32.85
2022-07-30T09:37:41.420Z,33.92
2022-07-30T09:40:32.239Z,36.20
2022-07-30T09:43:23.275Z,36.20
2022-07-30T09:46:01.789Z,40.83
2022-07-30T09:48:31.063Z,38.55
2022-07-30T09:51:00.492Z,43.33
2022-07-30T09:53:30.950Z,44.42
2022-07-30T09:56:00.997Z,48.20
2022-07-30T09:58:46.187Z,50.72
2022-07-30T10:01:16.989Z,51.45
2022-07-30T10:04:34.472Z,50.63
2022-07-30T10:07:25.525Z,50.58
2022-07-30T10:10:02.068Z,52.58
2022-07-30T10:12:38.975Z,51.60
2022-07-30T10:15:13.445Z,49.80
2022-07-30T10:17:43.796Z,48.42
2022-07-30T10:20:22.875Z,50.65
2022-07-30T10:23:15.881Z,46.35
2022-07-30T10:26:04.477Z,42.55
2022-07-30T10:28:53.762Z,43.28
2022-07-30T10:31:49.490Z,43.72
2022-07-30T10:34:13.479Z,44.05
2022-07-30T10:36:49.001Z,43.33
2022-07-30T10:39:34.631Z,45.83
2022-07-30T10:42:29.677Z,44.67
2022-07-30T10:45:29.641Z,46.42
2022-07-30T10:47:59.769Z,44.90
2022-07-30T10:50:30.322Z,42.92
2022-07-30T10:53:05.214Z,43.75
2022-07-30T10:55:39.174Z,43.47
2022-07-30T10:58:15.505Z,45.38
2022-07-30T11:01:05.294Z,47.50
2022-07-30T11:04:20.527Z,44.15
2022-07-30T11:06:50.915Z,44.72
2022-07-30T11:09:41.836Z,45.05
2022-07-30T11:12:12.962Z,45.35
2022-07-30T11:14:48.520Z,45.95
2022-07-30T11:17:19.831Z,45.25
2022-07-30T11:20:11.682Z,43.83
2022-07-30T11:22:42.420Z,45.83
2022-07-30T11:25:51.209Z,47.35
2022-07-30T11:28:41.710Z,46.45
2022-07-30T11:31:54.963Z,45.58
2022-07-30T11:34:25.772Z,43.67
2022-07-30T11:37:18.621Z,43.58
2022-07-30T11:39:57.815Z,46.28
2022-07-30T11:42:30.076Z,42.58
2022-07-30T11:45:17.818Z,44.75
2022-07-30T11:47:49.513Z,44.60
2022-07-30T11:50:36.067Z,47.30
2022-07-30T11:53:11.762Z,45.65
2022-07-30T11:55:44.971Z,44.28
2022-07-30T11:58:34.524Z,43.40
2022-07-30T12:01:09.025Z,40.72
2022-07-30T12:03:42.855Z,43.65
2022-07-30T12:06:19.007Z,41.80
2022-07-30T12:08:57.881Z,41.50
2022-07-30T12:11:34.099Z,44.60
2022-07-30T12:14:03.877Z,44.35
2022-07-30T12:16:34.155Z,40.38
2022-07-30T12:19:05.577Z,40.15
2022-07-30T12:21:35.277Z,41.40
2022-07-30T12:24:11.083Z,40.72
2022-07-30T12:26:40.826Z,40.50
2022-07-30T12:29:14.288Z,43.78
2022-07-30T12:31:43.846Z,41.75
2022-07-30T12:34:27.279Z,43.95
2022-07-30T12:36:56.474Z,41.88
2022-07-30T12:39:28.752Z,40.63
2022-07-30T12:41:58.151Z,40.25
2022-07-30T12:44:38.880Z,39.53
2022-07-30T12:47:21.688Z,38.25
2022-07-30T12:49:53.442Z,38.67
2022-07-30T12:52:32.230Z,39.15
2022-07-30T12:55:10.870Z,39.53
2022-07-30T12:58:07.133Z,24.55
2022-07-30T13:00:46.051Z,16.90
2022-07-30T13:03:26.122Z,16.70
2022-07-30T13:05:59.042Z,15.07
2022-07-30T13:08:47.391Z,15.07
2022-07-30T13:11:17.360Z,14.40
2022-07-30T13:13:46.959Z,14.88
2022-07-30T13:16:16.509Z,13.98
2022-07-30T13:18:46.084Z,14.38
2022-07-30T13:21:16.133Z,14.90
2022-07-30T13:23:45.186Z,13.93
2022-07-30T13:26:14.774Z,16.10
2022-07-30T13:28:44.256Z,16.17
2022-07-30T13:31:14.263Z,15.68
2022-07-30T13:33:43.532Z,15.23
2022-07-30T13:36:13.255Z,13.68
2022-07-30T13:38:42.716Z,14.25
2022-07-30T13:41:12.531Z,15.50
2022-07-30T13:43:41.647Z,15.57
2022-07-30T13:46:10.642Z,14.65
2022-07-30T13:48:40.438Z,15.45
2022-07-30T13:51:09.472Z,15.65
2022-07-30T13:53:38.806Z,14.85
2022-07-30T13:56:12.598Z,15.07
2022-07-30T13:58:42.822Z,14.68
2022-07-30T14:01:17.958Z,15.20
2022-07-30T14:03:50.896Z,15.00
2022-07-30T14:06:20.856Z,16.77
2022-07-30T14:08:50.081Z,15.05
2022-07-30T14:11:19.606Z,14.07
2022-07-30T14:13:51.710Z,14.15
2022-07-30T14:19:23.037Z,13.80
2022-07-30T14:21:55.137Z,11.52
2022-07-30T14:24:25.107Z,13.02
2022-07-30T14:26:57.950Z,11.98
2022-07-30T14:29:28.910Z,13.32
2022-07-30T14:31:58.266Z,12.45
2022-07-30T14:34:27.641Z,11.38
2022-07-30T14:36:56.879Z,11.68
2022-07-30T14:39:27.520Z,13.88
2022-07-30T14:41:57.486Z,13.20
2022-07-30T14:44:26.777Z,12.93
2022-07-30T14:46:56.400Z,13.95
2022-07-30T14:49:26.451Z,14.70
2022-07-30T14:51:56.570Z,15.32
2022-07-30T14:54:25.775Z,13.88
2022-07-30T14:56:58.436Z,16.40
2022-07-30T14:59:29.550Z,15.77
2022-07-30T15:01:59.347Z,15.43
2022-07-30T15:04:29.115Z,16.38
2022-07-30T15:06:58.801Z,17.05
2022-07-30T15:09:28.501Z,12.93
2022-07-30T15:12:09.324Z,14.30
2022-07-30T15:14:41.128Z,15.20
2022-07-30T15:17:10.543Z,14.77
2022-07-30T15:19:50.323Z,13.15
2022-07-30T15:22:21.373Z,14.32
2022-07-30T15:24:50.671Z,14.93
2022-07-30T15:27:22.438Z,16.73
2022-07-30T15:29:57.185Z,19.58
2022-07-30T15:32:26.414Z,18.90
2022-07-30T15:34:59.781Z,18.27
2022-07-30T15:37:29.395Z,18.80
2022-07-30T15:39:59.131Z,16.27
2022-07-30T15:42:28.331Z,15.95
2022-07-30T15:45:16.138Z,16.33
2022-07-30T15:47:47.076Z,16.02
2022-07-30T15:50:18.158Z,16.67
2022-07-30T15:52:47.656Z,16.63
2022-07-30T15:55:18.040Z,18.88
2022-07-30T15:57:49.464Z,18.42
2022-07-30T16:00:19.030Z,17.20
2022-07-30T16:02:48.055Z,16.58
2022-07-30T16:05:17.676Z,17.65
2022-07-30T16:07:46.593Z,18.63
2022-07-30T16:10:16.708Z,17.80
2022-07-30T16:12:46.098Z,19.38
2022-07-30T16:15:16.329Z,18.35
2022-07-30T16:17:45.879Z,18.58
2022-07-30T16:20:15.204Z,18.17
2022-07-30T16:22:44.535Z,17.75
2022-07-30T16:25:14.356Z,17.85
2022-07-30T16:27:44.020Z,17.73
2022-07-30T16:30:13.959Z,15.93
2022-07-30T16:32:43.108Z,16.55
2022-07-30T16:35:13.451Z,15.82
2022-07-30T16:37:43.356Z,15.30
2022-07-30T16:40:13.075Z,14.90
2022-07-30T16:42:42.215Z,15.50
2022-07-30T16:45:11.688Z,15.02
2022-07-30T16:47:40.958Z,16.45
2022-07-30T16:50:10.912Z,16.58
2022-07-30T16:52:40.042Z,15.07
2022-07-30T16:55:10.647Z,15.52
2022-07-30T16:57:39.678Z,15.93
2022-07-30T17:00:10.127Z,16.08
2022-07-30T17:02:39.688Z,15.40
2022-07-30T17:05:13.321Z,16.48
2022-07-30T17:07:43.268Z,17.48
2022-07-30T17:10:13.318Z,16.77
2022-07-30T17:12:51.057Z,15.25
2022-07-30T17:15:20.662Z,17.23
2022-07-30T17:18:05.255Z,17.55
2022-07-30T17:20:35.458Z,17.00
2022-07-30T17:23:05.689Z,18.52
2022-07-30T17:25:35.264Z,17.52
2022-07-30T17:28:04.855Z,17.90
2022-07-30T17:30:34.552Z,16.58
2022-07-30T17:33:05.987Z,17.67
2022-07-30T17:35:35.584Z,18.70
2022-07-30T17:38:05.104Z,17.73
2022-07-30T17:40:34.380Z,18.30
2022-07-30T17:43:08.542Z,18.73
2022-07-30T17:45:38.448Z,18.23
2022-07-30T17:48:09.400Z,18.02
2022-07-30T17:50:39.106Z,17.77
2022-07-30T17:53:08.452Z,16.75
2022-07-30T17:55:38.288Z,17.35
2022-07-30T17:58:07.915Z,16.83
2022-07-30T18:00:37.511Z,15.80
2022-07-30T18:03:06.797Z,15.13
2022-07-30T18:05:36.229Z,15.40
2022-07-30T18:08:05.551Z,15.25
2022-07-30T18:10:35.005Z,16.33
2022-07-30T18:13:25.939Z,15.07
2022-07-30T18:15:54.123Z,14.50
2022-07-30T18:18:23.225Z,14.82
2022-07-30T18:20:52.483Z,15.73
2022-07-30T18:23:21.688Z,15.43
2022-07-30T18:25:54.463Z,14.70
2022-07-30T18:28:24.904Z,15.90
2022-07-30T18:30:56.005Z,14.80
2022-07-30T18:33:25.821Z,14.23
2022-07-30T18:35:55.186Z,15.63
2022-07-30T18:38:24.619Z,13.43
2022-07-30T18:41:00.112Z,14.77
2022-07-30T18:43:29.999Z,15.15
2022-07-30T18:46:01.261Z,15.13
2022-07-30T18:48:30.693Z,15.45
2022-07-30T18:50:59.692Z,15.73
2022-07-30T18:53:29.737Z,14.27
2022-07-30T18:55:59.086Z,14.93
2022-07-30T18:58:28.231Z,15.82
2022-07-30T19:00:57.491Z,15.18
2022-07-30T19:03:26.449Z,16.15
2022-07-30T19:05:55.638Z,15.50
2022-07-30T19:08:24.550Z,15.07
2022-07-30T19:10:53.996Z,16.63
2022-07-30T19:13:25.083Z,15.32
2022-07-30T19:15:54.374Z,16.50
2022-07-30T19:18:23.624Z,18.27
2022-07-30T19:20:53.063Z,14.82
2022-07-30T19:23:22.377Z,14.32
2022-07-30T19:25:52.217Z,15.27
2022-07-30T19:28:21.547Z,13.15
2022-07-30T19:30:51.099Z,13.55
2022-07-30T19:33:21.527Z,12.50
2022-07-30T19:35:51.467Z,12.55
2022-07-30T19:38:22.027Z,13.30
2022-07-30T19:43:24.639Z,13.15
2022-07-30T19:45:54.478Z,11.73
2022-07-30T19:48:31.789Z,12.40
2022-07-30T19:51:02.462Z,13.20
2022-07-30T19:53:34.779Z,12.02
2022-07-30T19:56:08.367Z,12.95
2022-07-30T19:58:40.785Z,12.15
2022-07-30T20:01:12.106Z,12.32
2022-07-30T20:03:42.066Z,12.73
2022-07-30T20:06:18.146Z,12.77
2022-07-30T20:08:47.259Z,13.02
2022-07-30T20:11:34.783Z,11.45
2022-07-30T20:14:06.417Z,13.07
2022-07-30T20:16:36.557Z,12.63
2022-07-30T20:19:06.250Z,12.48
2022-07-30T20:21:56.324Z,12.60
2022-07-30T20:24:26.689Z,12.02
2022-07-30T20:26:55.807Z,10.98
2022-07-30T20:29:25.571Z,11.85
2022-07-30T20:31:56.059Z,10.93
2022-07-30T20:34:25.925Z,11.30
2022-07-30T20:36:56.928Z,10.93
2022-07-30T20:39:26.972Z,10.18
2022-07-30T20:42:14.888Z,9.07
2022-07-30T20:44:49.521Z,8.93
2022-07-30T20:47:37.494Z,9.10
2022-07-30T20:50:10.856Z,8.43
2022-07-30T20:52:46.703Z,8.90
2022-07-30T20:55:18.724Z,8.35
2022-07-30T20:57:57.141Z,8.93
2022-07-30T21:00:32.994Z,14.50
2022-07-30T21:03:03.401Z,10.95
2022-07-30T21:05:33.376Z,9.05
2022-07-30T21:08:02.739Z,9.02
2022-07-30T21:10:33.636Z,9.30
2022-07-30T21:13:07.638Z,9.40
2022-07-30T21:15:45.538Z,9.93
2022-07-30T21:18:26.590Z,9.38
2022-07-30T21:20:56.853Z,8.80
2022-07-30T21:23:28.104Z,8.95
2022-07-30T21:26:02.796Z,9.65
2022-07-30T21:28:35.636Z,10.18
2022-07-30T21:31:06.957Z,10.70
2022-07-30T21:33:38.705Z,10.07
2022-07-30T21:38:57.553Z,9.82
2022-07-30T21:41:40.433Z,9.45
2022-07-30T21:44:10.664Z,10.07
2022-07-30T21:46:41.866Z,9.77
2022-07-30T21:49:11.691Z,9.30
2022-07-30T21:51:41.073Z,10.00
2022-07-30T21:54:17.051Z,9.70
2022-07-30T21:56:56.467Z,9.15
2022-07-30T21:59:28.636Z,8.90
2022-07-30T22:01:57.930Z,10.48
2022-07-30T22:04:27.403Z,11.38
2022-07-30T22:06:56.625Z,10.38
2022-07-30T22:09:34.276Z,10.57
2022-07-30T22:12:09.062Z,10.77
2022-07-30T22:14:41.866Z,10.95
2022-07-30T22:17:22.531Z,11.20
2022-07-30T22:19:55.549Z,11.10
2022-07-30T22:22:26.602Z,11.93
2022-07-30T22:24:59.910Z,12.32
2022-07-30T22:30:13.762Z,10.93
2022-07-30T22:32:43.860Z,11.48
2022-07-30T22:35:16.223Z,11.68
2022-07-30T22:37:46.747Z,12.57
2022-07-30T22:40:17.011Z,12.43
2022-07-30T22:42:49.622Z,11.98
2022-07-30T22:45:34.108Z,11.90
2022-07-30T22:48:10.818Z,11.88
2022-07-30T22:50:41.288Z,12.05
2022-07-30T22:53:23.612Z,11.10
2022-07-30T22:56:00.039Z,11.45
2022-07-30T22:58:30.052Z,11.15
2022-07-30T23:00:59.149Z,11.65
2022-07-30T23:03:28.572Z,12.38
2022-07-30T23:05:57.790Z,11.93
2022-07-30T23:08:29.615Z,13.43
2022-07-30T23:11:02.996Z,12.15
2022-07-30T23:12:32.056Z,9.90
2022-07-30T23:13:32.259Z,12.15
2022-07-30T23:16:01.267Z,13.27
2022-07-30T23:18:30.430Z,12.98
2022-07-30T23:21:00.530Z,12.20
2022-07-30T23:23:34.329Z,14.10
2022-07-30T23:26:07.480Z,13.90
2022-07-30T23:28:37.915Z,13.82
2022-07-30T23:31:07.249Z,13.73
2022-07-30T23:33:36.324Z,13.15
2022-07-30T23:36:09.869Z,15.25
2022-07-30T23:38:39.081Z,15.05
2022-07-30T23:41:08.307Z,15.05
2022-07-30T23:43:38.820Z,16.80
2022-07-30T23:46:09.559Z,16.35
2022-07-30T23:48:40.626Z,15.00
2022-07-30T23:51:09.545Z,15.32
2022-07-30T23:53:39.079Z,15.63
2022-07-30T23:56:08.965Z,15.30
2022-07-30T23:58:40.640Z,14.98
